createdAt,value
2023-05-12T00:00:02.789Z,9.30
2023-05-12T00:05:09.874Z,9.20
2023-05-12T00:10:16.914Z,9.10
2023-05-12T00:15:22.429Z,9.10
2023-05-12T00:20:27.832Z,8.90
2023-05-12T00:25:35.422Z,8.80
2023-05-12T00:30:41.664Z,8.70
2023-05-12T00:35:46.837Z,8.60
2023-05-12T00:40:51.995Z,8.50
2023-05-12T00:45:58.626Z,8.50
2023-05-12T00:51:06.667Z,8.40
2023-05-12T00:56:12.733Z,8.40
2023-05-12T01:01:19.823Z,8.40
2023-05-12T01:06:34.544Z,8.30
2023-05-12T01:11:39.773Z,8.30
2023-05-12T01:16:51.708Z,8.20
2023-05-12T01:21:58.589Z,8.10
2023-05-12T01:27:04.506Z,8.10
2023-05-12T01:32:10.819Z,8.00
2023-05-12T01:37:18.748Z,8.00
2023-05-12T01:42:24.069Z,7.90
2023-05-12T01:47:29.202Z,7.90
2023-05-12T01:52:35.564Z,7.80
2023-05-12T01:57:43.740Z,7.70
2023-05-12T02:02:55.594Z,7.60
2023-05-12T02:08:02.120Z,7.50
2023-05-12T02:13:07.521Z,7.40
2023-05-12T02:18:12.718Z,7.30
2023-05-12T02:23:17.964Z,7.30
2023-05-12T02:28:23.097Z,7.20
2023-05-12T02:33:30.435Z,7.10
2023-05-12T02:38:41.948Z,7.00
2023-05-12T02:43:47.355Z,6.90
2023-05-12T02:48:52.572Z,6.90
2023-05-12T02:53:58.831Z,6.90
2023-05-12T02:59:05.469Z,6.90
2023-05-12T03:04:13.450Z,6.90
2023-05-12T03:09:19.691Z,7.00
2023-05-12T03:14:29.240Z,7.00
2023-05-12T03:19:37.580Z,7.00
2023-05-12T03:24:45.821Z,7.00
2023-05-12T03:29:54.672Z,7.00
2023-05-12T03:35:00.612Z,7.00
2023-05-12T03:40:10.437Z,7.10
2023-05-12T03:45:20.732Z,7.10
2023-05-12T03:50:28.714Z,7.10
2023-05-12T03:55:35.509Z,7.30
2023-05-12T04:00:44.272Z,7.30
2023-05-12T04:05:53.210Z,7.40
2023-05-12T04:11:02.242Z,7.60
2023-05-12T04:16:16.307Z,7.70
2023-05-12T04:21:24.026Z,7.90
2023-05-12T04:26:38.331Z,8.20
2023-05-12T04:31:46.804Z,8.60
2023-05-12T04:37:08.773Z,8.80
2023-05-12T04:42:16.906Z,9.10
2023-05-12T04:47:24.436Z,9.40
2023-05-12T04:52:38.387Z,9.70
2023-05-12T04:57:53.558Z,10.00
2023-05-12T05:03:11.554Z,10.20
2023-05-12T05:08:36.761Z,10.70
2023-05-12T05:13:51.007Z,11.00
2023-05-12T05:18:58.849Z,11.40
2023-05-12T05:24:23.953Z,11.80
2023-05-12T05:29:49.585Z,12.20
2023-05-12T05:35:05.308Z,12.70
2023-05-12T05:40:11.861Z,13.10
2023-05-12T05:45:21.217Z,13.60
2023-05-12T05:50:34.642Z,14.00
2023-05-12T05:55:45.169Z,14.40
2023-05-12T06:00:54.378Z,14.80
2023-05-12T06:06:00.060Z,15.00
2023-05-12T06:11:15.847Z,15.40
2023-05-12T06:16:33.485Z,15.70
2023-05-12T06:21:43.113Z,16.20
2023-05-12T06:26:50.066Z,16.30
2023-05-12T06:37:40.162Z,17.10
2023-05-12T06:48:34.884Z,17.90
2023-05-12T06:53:45.826Z,18.50
2023-05-12T06:58:52.544Z,18.30
2023-05-12T07:04:02.225Z,18.60
2023-05-12T07:09:07.454Z,19.00
2023-05-12T07:14:13.982Z,18.80
2023-05-12T07:19:19.386Z,19.50
2023-05-12T07:24:26.006Z,20.10
2023-05-12T07:29:31.257Z,20.60
2023-05-12T07:34:40.086Z,21.30
2023-05-12T07:39:46.377Z,20.00
2023-05-12T07:44:51.587Z,20.60
2023-05-12T07:49:56.724Z,20.60
2023-05-12T07:55:01.951Z,20.90
2023-05-12T08:00:08.488Z,21.10
2023-05-12T08:05:14.948Z,21.70
2023-05-12T08:10:20.289Z,21.40
2023-05-12T08:15:25.944Z,22.30
2023-05-12T08:20:32.311Z,23.10
2023-05-12T08:25:37.747Z,22.50
2023-05-12T08:30:45.297Z,22.10
2023-05-12T08:35:51.135Z,22.20
2023-05-12T08:40:59.903Z,22.10
2023-05-12T08:46:06.691Z,23.40
2023-05-12T08:51:17.014Z,23.60
2023-05-12T09:01:36.633Z,22.80
2023-05-12T09:06:41.478Z,22.50
2023-05-12T09:11:48.386Z,23.20
2023-05-12T09:16:58.322Z,22.80
2023-05-12T09:22:04.563Z,23.50
2023-05-12T09:27:10.242Z,23.00
2023-05-12T09:32:16.137Z,22.50
2023-05-12T09:37:26.053Z,22.40
2023-05-12T09:42:34.807Z,22.60
2023-05-12T09:47:41.297Z,23.30
2023-05-12T09:52:46.576Z,23.20
2023-05-12T09:57:52.600Z,23.00
2023-05-12T10:02:58.578Z,22.40
2023-05-12T10:08:07.007Z,22.70
2023-05-12T10:13:16.487Z,22.60
2023-05-12T10:18:22.805Z,23.10
2023-05-12T10:23:32.302Z,23.40
2023-05-12T10:28:37.523Z,23.80
2023-05-12T10:33:43.154Z,23.90
2023-05-12T10:38:51.432Z,23.90
2023-05-12T10:43:58.967Z,23.80
2023-05-12T10:49:11.284Z,22.80
2023-05-12T10:54:25.075Z,24.10
2023-05-12T10:59:30.754Z,24.30
2023-05-12T11:05:04.818Z,23.20
2023-05-12T11:10:17.682Z,22.70
2023-05-12T11:15:26.550Z,23.20
2023-05-12T11:20:32.842Z,23.50
2023-05-12T11:25:38.092Z,24.30
2023-05-12T11:30:55.021Z,24.50
2023-05-12T11:35:59.718Z,24.80
2023-05-12T11:41:04.995Z,24.40
2023-05-12T11:46:10.306Z,24.40
2023-05-12T11:51:17.123Z,24.40
2023-05-12T11:56:27.336Z,24.50
2023-05-12T12:01:34.828Z,24.00
2023-05-12T12:07:01.495Z,23.50
2023-05-12T12:12:09.809Z,23.60
2023-05-12T12:17:16.892Z,23.40
2023-05-12T12:22:22.151Z,23.50
2023-05-12T12:27:32.763Z,23.30
2023-05-12T12:32:44.685Z,22.70
2023-05-12T12:38:04.236Z,23.10
2023-05-12T12:43:14.812Z,22.70
2023-05-12T12:48:25.412Z,23.20
2023-05-12T12:53:37.881Z,23.20
2023-05-12T12:58:45.498Z,22.70
2023-05-12T13:03:54.447Z,23.30
2023-05-12T13:09:00.941Z,24.00
2023-05-12T13:14:08.673Z,23.50
2023-05-12T13:19:16.622Z,23.50
2023-05-12T13:24:21.915Z,23.40
2023-05-12T13:29:28.352Z,23.30
2023-05-12T13:34:35.802Z,23.40
2023-05-12T13:39:40.896Z,23.20
2023-05-12T13:44:56.628Z,22.90
2023-05-12T15:12:42.509Z,22.00
2023-05-12T15:17:47.961Z,22.00
2023-05-12T15:22:54.956Z,22.10
2023-05-12T15:28:00.169Z,21.70
2023-05-12T15:33:06.257Z,21.50
2023-05-12T15:38:11.490Z,21.30
2023-05-12T15:43:16.833Z,21.60
2023-05-12T15:48:21.983Z,21.40
2023-05-12T15:53:39.213Z,21.40
2023-05-12T15:58:45.334Z,21.30
2023-05-12T16:03:54.664Z,21.20
2023-05-12T16:09:00.307Z,21.20
2023-05-12T16:14:05.839Z,21.10
2023-05-12T16:19:12.176Z,20.80
2023-05-12T16:24:18.078Z,20.80
2023-05-12T16:29:23.274Z,20.90
2023-05-12T16:34:28.962Z,20.80
2023-05-12T16:39:35.724Z,20.70
2023-05-12T16:44:41.192Z,20.60
2023-05-12T16:49:46.350Z,20.50
2023-05-12T16:54:58.989Z,20.40
2023-05-12T17:00:07.038Z,20.30
2023-05-12T17:05:12.504Z,20.20
2023-05-12T17:10:17.778Z,20.10
2023-05-12T17:15:23.725Z,20.10
2023-05-12T17:20:29.363Z,19.90
2023-05-12T17:25:34.953Z,19.80
2023-05-12T17:30:40.227Z,19.60
2023-05-12T17:35:51.492Z,19.50
2023-05-12T17:40:52.754Z,19.40
2023-05-12T17:45:59.853Z,19.20
2023-05-12T17:51:05.672Z,19.20
2023-05-12T17:56:11.568Z,19.00
2023-05-12T18:01:17.254Z,18.90
2023-05-12T18:06:22.600Z,18.70
2023-05-12T18:11:36.461Z,18.60
2023-05-12T18:16:42.641Z,18.40
2023-05-12T18:21:52.778Z,18.30
2023-05-12T18:26:57.862Z,18.10
2023-05-12T18:32:04.343Z,17.90
2023-05-12T18:37:11.149Z,17.80
2023-05-12T18:42:25.407Z,17.70
2023-05-12T18:47:30.788Z,17.50
2023-05-12T18:52:36.412Z,17.20
2023-05-12T18:57:44.908Z,16.90
2023-05-12T19:02:51.719Z,16.70
2023-05-12T19:07:57.304Z,16.50
2023-05-12T19:13:02.378Z,16.20
2023-05-12T19:18:11.036Z,16.00
2023-05-12T19:23:16.472Z,15.80
2023-05-12T19:28:21.735Z,15.60
2023-05-12T19:33:34.907Z,15.40
2023-05-12T19:38:41.734Z,15.20
2023-05-12T19:43:48.387Z,14.90
2023-05-12T19:48:53.761Z,14.80
2023-05-12T19:53:59.675Z,14.70
2023-05-12T19:59:07.282Z,14.50
2023-05-12T20:04:15.277Z,14.30
2023-05-12T20:09:22.324Z,14.10
2023-05-12T20:14:27.519Z,13.90
2023-05-12T20:19:34.530Z,13.70
2023-05-12T20:24:39.791Z,13.60
2023-05-12T20:29:45.112Z,13.30
2023-05-12T20:34:50.349Z,13.10
2023-05-12T20:39:55.868Z,13.00
2023-05-12T20:45:01.291Z,12.90
2023-05-12T20:50:08.029Z,12.70
2023-05-12T20:55:13.200Z,12.60
2023-05-12T21:00:18.643Z,12.40
2023-05-12T21:05:24.923Z,12.20
2023-05-12T21:10:31.683Z,12.10
2023-05-12T21:15:37.518Z,12.00
2023-05-12T21:20:42.825Z,11.90
2023-05-12T21:25:49.342Z,11.70
2023-05-12T21:30:54.556Z,11.60
2023-05-12T21:36:00.160Z,11.40
2023-05-12T21:41:05.549Z,11.30
2023-05-12T21:46:10.610Z,11.20
2023-05-12T21:51:16.069Z,11.10
2023-05-12T21:56:22.180Z,11.00
2023-05-12T22:01:27.564Z,10.90
2023-05-12T22:06:33.424Z,10.80
2023-05-12T22:11:38.763Z,10.60
2023-05-12T22:16:45.228Z,10.50
2023-05-12T22:21:50.601Z,10.50
2023-05-12T22:26:55.917Z,10.40
2023-05-12T22:32:01.432Z,10.30
2023-05-12T22:37:06.574Z,10.20
2023-05-12T22:42:11.766Z,10.00
2023-05-12T22:47:17.019Z,9.90
2023-05-12T22:52:22.464Z,9.80
2023-05-12T22:57:27.819Z,9.80
2023-05-12T23:02:33.030Z,9.70
2023-05-12T23:07:38.955Z,9.60
2023-05-12T23:12:44.097Z,9.50
2023-05-12T23:17:50.017Z,9.50
2023-05-12T23:22:55.333Z,9.40
2023-05-12T23:28:00.570Z,9.30
2023-05-12T23:33:06.121Z,9.10
2023-05-12T23:38:11.360Z,9.10
2023-05-12T23:43:20.526Z,9.00
2023-05-12T23:48:26.257Z,8.90
2023-05-12T23:53:31.526Z,8.80
2023-05-12T23:58:36.610Z,8.70
